Time;durP1;ratioP1;P1;durP2;ratioP2;P2;SDS_P1;SDS_P2;PMS_P1;PMS_P2;Temp;Humidity;BMP_temperature;BMP_pressure;BME280_temperature;BME280_humidity;BME280_pressure;Samples;Min_cycle;Max_cycle;Signal;HPM_P1;HPM_P2
2021/11/25 00:01:55;;;;;;;1.73;0.90;;;;;;;3.58;100.00;99329.97;4954116;28;20125;-65
2021/11/25 00:04:41;;;;;;;1.88;0.88;;;;;;;3.61;100.00;99318.59;4971104;28;20112;-66
2021/11/25 00:07:26;;;;;;;0.85;0.65;;;;;;;3.62;100.00;99326.47;4986076;28;20048;-66
2021/11/25 00:10:11;;;;;;;1.95;0.90;;;;;;;3.63;100.00;99333.44;4987906;28;20164;-67
2021/11/25 00:12:57;;;;;;;1.48;0.90;;;;;;;3.71;100.00;99341.31;4985164;28;20049;-66
2021/11/25 00:15:42;;;;;;;1.48;0.60;;;;;;;3.77;100.00;99341.31;4971067;28;20565;-65
2021/11/25 00:18:27;;;;;;;1.85;0.65;;;;;;;3.83;100.00;99336.94;4986263;28;20097;-68
2021/11/25 00:21:12;;;;;;;1.42;0.80;;;;;;;3.79;100.00;99345.69;4971547;28;20149;-63
2021/11/25 00:23:57;;;;;;;5.07;0.90;;;;;;;3.80;100.00;99362.31;4986534;28;20141;-66
2021/11/25 00:26:42;;;;;;;1.35;0.90;;;;;;;3.79;100.00;99352.66;4970478;28;20057;-68
2021/11/25 00:29:26;;;;;;;1.35;0.80;;;;;;;3.76;100.00;99363.19;4986048;28;20100;-64
2021/11/25 00:32:11;;;;;;;5.93;1.00;;;;;;;3.71;100.00;99357.91;4969099;28;20049;-64
2021/11/25 00:34:56;;;;;;;2.53;1.23;;;;;;;3.71;100.00;99354.41;4986009;28;20085;-64
2021/11/25 00:37:41;;;;;;;1.92;1.02;;;;;;;3.65;100.00;99365.75;4967285;28;20065;-64
2021/11/25 00:40:25;;;;;;;1.40;0.85;;;;;;;3.75;100.00;99357.03;4986196;28;20076;-64
2021/11/25 00:43:09;;;;;;;3.13;0.90;;;;;;;3.69;100.00;99369.28;4986845;28;20050;-63
2021/11/25 00:45:55;;;;;;;1.92;1.10;;;;;;;3.75;100.00;99374.50;4964822;28;20097;-64
2021/11/25 00:48:40;;;;;;;1.40;0.65;;;;;;;3.82;100.00;99373.66;4974088;28;20049;-61
2021/11/25 00:51:25;;;;;;;1.25;0.80;;;;;;;3.81;100.00;99369.28;4982426;28;20101;-64
2021/11/25 00:54:09;;;;;;;1.20;0.70;;;;;;;3.94;100.00;99371.91;4974244;28;20100;-66
2021/11/25 00:56:54;;;;;;;2.72;0.90;;;;;;;3.91;100.00;99379.78;4970159;28;20104;-64
2021/11/25 00:59:38;;;;;;;2.33;0.90;;;;;;;3.91;100.00;99384.13;4985530;28;20045;-63
2021/11/25 01:02:24;;;;;;;1.88;0.98;;;;;;;3.90;100.00;99401.63;4985070;28;20062;-66
2021/11/25 01:05:16;;;;;;;1.38;0.90;;;;;;;3.95;100.00;99406.84;4983895;28;20104;-71
2021/11/25 01:08:02;;;;;;;2.20;0.80;;;;;;;3.74;100.00;99396.38;4983837;28;20057;-64
2021/11/25 01:10:49;;;;;;;2.00;0.70;;;;;;;3.83;100.00;99404.22;4962215;28;20052;-64
2021/11/25 01:13:34;;;;;;;0.88;0.50;;;;;;;3.81;100.00;99396.38;4984061;28;20084;-64
2021/11/25 01:16:19;;;;;;;0.82;0.70;;;;;;;3.84;100.00;99399.00;4969818;28;20077;-67
2021/11/25 01:19:04;;;;;;;0.88;0.60;;;;;;;3.88;100.00;99413.00;4983991;28;20080;-70
2021/11/25 01:21:49;;;;;;;1.40;0.77;;;;;;;3.99;100.00;99408.59;4969337;28;20061;-68
2021/11/25 01:24:33;;;;;;;1.13;0.60;;;;;;;3.92;100.00;99414.75;4981003;28;20108;-65
2021/11/25 01:27:18;;;;;;;1.80;0.65;;;;;;;3.95;100.00;99414.72;4983436;28;20521;-64
2021/11/25 01:30:05;;;;;;;1.98;0.90;;;;;;;3.89;100.00;99406.88;4961587;28;20116;-69
2021/11/25 01:32:50;;;;;;;1.05;0.60;;;;;;;3.77;100.00;99417.34;4969345;28;20053;-62
2021/11/25 01:35:37;;;;;;;1.27;0.52;;;;;;;3.76;100.00;99434.81;4967990;28;20160;-64
2021/11/25 01:38:22;;;;;;;0.82;0.50;;;;;;;3.66;100.00;99430.44;4967274;28;20077;-69
2021/11/25 01:41:07;;;;;;;0.82;0.40;;;;;;;3.67;100.00;99431.31;4968651;28;20138;-65
2021/11/25 01:43:52;;;;;;;1.83;0.50;;;;;;;3.64;100.00;99426.94;4977456;28;20092;-62
2021/11/25 01:46:38;;;;;;;0.98;0.40;;;;;;;3.74;100.00;99448.81;4962094;28;20057;-69
2021/11/25 01:49:22;;;;;;;2.27;0.70;;;;;;;3.73;100.00;99445.28;4983055;28;20065;-62
2021/11/25 01:52:07;;;;;;;0.60;0.40;;;;;;;3.79;100.00;99447.06;4984929;28;20322;-63
2021/11/25 01:54:51;;;;;;;0.85;0.65;;;;;;;3.73;100.00;99442.66;4968878;28;20740;-67
2021/11/25 01:57:37;;;;;;;0.80;0.47;;;;;;;3.79;100.00;99452.31;4963385;28;20054;-68
2021/11/25 02:00:34;;;;;;;0.68;0.47;;;;;;;3.82;100.00;99461.06;4962051;28;20551;-61
2021/11/25 02:03:19;;;;;;;1.42;0.50;;;;;;;3.70;100.00;99458.41;4973900;28;20053;-67
2021/11/25 02:06:05;;;;;;;2.50;0.50;;;;;;;3.75;100.00;99471.50;4986601;28;20077;-71
2021/11/25 02:08:50;;;;;;;0.98;0.55;;;;;;;3.78;100.00;99459.31;4959304;28;20461;-64
2021/11/25 02:11:35;;;;;;;2.97;0.60;;;;;;;3.76;100.00;99460.19;4970757;28;20130;-64
2021/11/25 02:14:21;;;;;;;1.50;0.60;;;;;;;3.83;100.00;99470.69;4963386;28;20089;-64
2021/11/25 02:17:05;;;;;;;2.50;0.50;;;;;;;3.84;100.00;99469.78;4967856;28;20173;-65
2021/11/25 02:19:51;;;;;;;2.63;0.30;;;;;;;3.87;100.00;99468.91;4976482;28;20407;-65
2021/11/25 02:22:38;;;;;;;1.30;0.50;;;;;;;3.88;100.00;99483.81;4963847;28;20158;-64
2021/11/25 02:25:23;;;;;;;2.50;0.50;;;;;;;3.90;100.00;99490.81;4954868;28;20132;-67
2021/11/25 02:28:08;;;;;;;0.95;0.50;;;;;;;3.89;100.00;99494.31;4987974;28;20064;-66
2021/11/25 02:30:54;;;;;;;0.80;0.60;;;;;;;3.91;100.00;99491.66;4984366;28;20208;-64
2021/11/25 02:33:41;;;;;;;1.95;0.60;;;;;;;3.86;100.00;99504.78;4972035;28;20045;-64
2021/11/25 02:36:26;;;;;;;1.65;0.63;;;;;;;3.83;100.00;99493.38;4986207;28;21100;-64
2021/11/25 02:39:11;;;;;;;1.63;0.65;;;;;;;3.71;100.00;99477.63;4987373;28;20061;-62
2021/11/25 02:41:55;;;;;;;1.35;0.65;;;;;;;3.65;100.00;99502.06;4969685;28;20132;-61
2021/11/25 02:44:40;;;;;;;2.08;0.95;;;;;;;3.60;100.00;99506.44;4987625;28;20089;-73
2021/11/25 02:47:27;;;;;;;2.07;1.00;;;;;;;3.66;100.00;99501.22;4974778;28;20823;-62
2021/11/25 02:50:14;;;;;;;1.40;0.82;;;;;;;3.72;100.00;99511.72;4974983;28;20208;-64
2021/11/25 02:52:59;;;;;;;1.98;0.90;;;;;;;3.66;100.00;99521.31;4973660;28;20470;-63
2021/11/25 02:55:43;;;;;;;4.10;1.05;;;;;;;3.66;100.00;99527.44;4987491;28;20069;-62
2021/11/25 02:58:28;;;;;;;3.00;0.95;;;;;;;3.72;100.00;99519.59;4971366;28;20057;-66
2021/11/25 03:01:18;;;;;;;3.47;1.00;;;;;;;3.85;100.00;99520.50;4972796;28;20543;-63
2021/11/25 03:04:05;;;;;;;2.33;0.90;;;;;;;3.75;100.00;99530.09;4985781;28;20413;-64
2021/11/25 03:06:51;;;;;;;1.63;0.82;;;;;;;3.78;100.00;99526.59;4988143;28;20092;-62
2021/11/25 03:09:35;;;;;;;1.73;0.77;;;;;;;3.87;100.00;99524.00;4989132;28;20057;-63
2021/11/25 03:12:20;;;;;;;1.80;0.80;;;;;;;3.90;100.00;99519.66;4988271;28;20085;-62
2021/11/25 03:15:05;;;;;;;1.35;0.70;;;;;;;3.92;100.00;99527.53;4974017;28;20055;-64
2021/11/25 03:17:50;;;;;;;1.73;0.73;;;;;;;3.93;100.00;99534.50;4987322;28;20514;-60
2021/11/25 03:20:37;;;;;;;2.05;0.95;;;;;;;3.90;100.00;99526.63;4965642;28;20113;-68
2021/11/25 03:23:27;;;;;;;1.92;0.93;;;;;;;3.85;100.00;99525.75;4958014;28;20045;-63
2021/11/25 03:26:15;;;;;;;2.58;0.80;;;;;;;3.85;100.00;99529.25;4988290;28;20473;-66
2021/11/25 03:29:01;;;;;;;2.30;0.90;;;;;;;3.85;100.00;99526.63;4944513;28;20104;-64
2021/11/25 03:31:46;;;;;;;1.80;1.00;;;;;;;3.85;100.00;99523.13;4970196;28;20040;-64
2021/11/25 03:34:30;;;;;;;2.08;0.80;;;;;;;3.88;100.00;99533.63;4986534;28;20426;-66
2021/11/25 03:37:15;;;;;;;1.83;0.70;;;;;;;3.98;100.00;99541.53;4985460;28;20076;-64
2021/11/25 03:39:59;;;;;;;2.13;0.80;;;;;;;3.95;100.00;99541.50;4986408;28;20149;-63
2021/11/25 03:42:44;;;;;;;;;;;;;;;3.95;100.00;99543.25;4972264;28;20069;-63
2021/11/25 03:45:29;;;;;;;2.13;0.90;;;;;;;3.98;100.00;99549.38;4989555;28;19929;-61
2021/11/25 03:48:15;;;;;;;1.85;0.80;;;;;;;3.85;100.00;99549.34;4987167;28;20529;-63
2021/11/25 03:51:03;;;;;;;1.48;0.90;;;;;;;3.78;100.00;99542.31;4984730;28;20571;-62
2021/11/25 03:53:49;;;;;;;1.67;0.82;;;;;;;3.77;100.00;99549.31;4974438;28;20113;-63
2021/11/25 03:56:34;;;;;;;;;;;;;;;3.74;100.00;99551.06;4988545;28;20154;-70
2021/11/25 03:59:20;;;;;;;1.73;0.80;;;;;;;3.70;100.00;99549.28;4973899;28;20060;-64
2021/11/25 04:02:04;;;;;;;2.63;1.00;;;;;;;3.63;100.00;99558.88;4953384;28;20058;-73
2021/11/25 04:04:50;;;;;;;3.28;1.10;;;;;;;3.65;100.00;99575.47;4970661;28;20300;-72
2021/11/25 04:07:34;;;;;;;1.90;1.15;;;;;;;3.74;100.00;99574.66;4965003;28;20057;-68
2021/11/25 04:10:19;;;;;;;2.00;1.23;;;;;;;3.92;100.00;99577.34;4980307;28;20104;-63
2021/11/25 04:13:05;;;;;;;2.35;1.00;;;;;;;3.89;100.00;99575.59;4967689;28;20053;-71
2021/11/25 04:15:50;;;;;;;1.70;1.13;;;;;;;4.01;100.00;99585.25;4955214;28;20053;-69
2021/11/25 04:18:35;;;;;;;2.35;1.05;;;;;;;3.94;100.00;99588.72;4973504;28;20052;-70
2021/11/25 04:21:19;;;;;;;2.95;1.20;;;;;;;4.05;100.00;99587.88;4981612;28;20086;-64
2021/11/25 04:24:04;;;;;;;5.45;1.25;;;;;;;4.08;100.00;99587.88;4978111;28;20141;-71
2021/11/25 04:26:49;;;;;;;3.05;1.48;;;;;;;3.98;100.00;99593.97;4968449;28;20077;-67
2021/11/25 04:29:36;;;;;;;1.55;0.90;;;;;;;3.99;100.00;99594.84;4984118;28;20533;-76
2021/11/25 04:35:42;;;;;;;3.50;1.70;;;;;;;3.91;100.00;99618.44;4982284;28;20073;-64
2021/11/25 04:38:28;;;;;;;1.83;1.23;;;;;;;3.94;100.00;99607.06;4960912;28;20061;-63
2021/11/25 04:41:13;;;;;;;1.25;0.98;;;;;;;3.93;100.00;99603.59;4951126;28;20053;-66
2021/11/25 04:44:01;;;;;;;2.50;1.27;;;;;;;3.76;100.00;99617.50;4954035;28;20072;-61
2021/11/25 04:46:46;;;;;;;1.30;0.85;;;;;;;3.65;100.00;99616.56;4954811;28;20077;-59
2021/11/25 04:49:32;;;;;;;2.45;1.00;;;;;;;3.57;100.00;99631.38;4967549;28;20108;-63
2021/11/25 04:52:16;;;;;;;4.03;1.27;;;;;;;3.54;100.00;99639.22;4978294;28;20100;-62
2021/11/25 04:55:00;;;;;;;1.70;1.00;;;;;;;3.46;100.00;99639.19;4974879;28;20158;-63
2021/11/25 04:57:46;;;;;;;2.53;1.10;;;;;;;3.47;100.00;99645.28;4965430;28;20108;-62
2021/11/25 05:00:32;;;;;;;1.70;1.00;;;;;;;3.37;100.00;99631.25;4982251;28;20057;-62
2021/11/25 05:03:16;;;;;;;1.58;1.00;;;;;;;3.61;100.00;99659.34;4955296;28;20105;-64
2021/11/25 05:06:02;;;;;;;1.20;0.77;;;;;;;3.59;100.00;99659.34;4982205;28;20065;-62
2021/11/25 05:08:47;;;;;;;2.08;0.98;;;;;;;3.61;100.00;99657.59;4966672;28;20215;-63
2021/11/25 05:11:32;;;;;;;2.33;0.80;;;;;;;3.69;100.00;99658.50;4986113;28;20104;-67
2021/11/25 05:14:21;;;;;;;4.43;1.10;;;;;;;3.76;100.00;99656.81;4970250;28;20137;-68
2021/11/25 05:17:06;;;;;;;1.77;1.17;;;;;;;3.74;100.00;99662.06;4985483;28;20229;-68
2021/11/25 05:19:50;;;;;;;;;;;;;;;3.76;100.00;99659.44;4984080;28;20080;-68
2021/11/25 05:22:36;;;;;;;2.78;1.27;;;;;;;3.93;100.00;99668.28;4970473;28;20290;-66
2021/11/25 05:25:22;;;;;;;1.42;1.00;;;;;;;4.04;100.00;99663.94;4970467;28;20056;-62
2021/11/25 05:28:10;;;;;;;2.40;1.08;;;;;;;4.03;100.00;99668.31;4959145;28;20100;-62
2021/11/25 05:30:55;;;;;;;4.40;1.33;;;;;;;3.94;100.00;99672.63;4984825;28;20069;-60
2021/11/25 05:33:40;;;;;;;2.00;1.10;;;;;;;3.73;100.00;99667.28;4984102;28;20479;-65
2021/11/25 05:36:25;;;;;;;4.60;1.10;;;;;;;3.66;100.00;99663.75;4968292;28;21108;-63
2021/11/25 05:39:10;;;;;;;3.97;1.20;;;;;;;3.66;100.00;99674.25;4985293;28;20072;-62
2021/11/25 05:41:55;;;;;;;4.10;1.23;;;;;;;3.64;100.00;99685.59;4985605;28;20060;-62
2021/11/25 05:44:40;;;;;;;3.85;1.38;;;;;;;3.63;100.00;99692.56;4986343;28;20521;-62
2021/11/25 05:47:25;;;;;;;2.38;1.50;;;;;;;3.60;100.00;99675.97;4969288;28;20128;-65
2021/11/25 05:50:13;;;;;;;4.25;1.60;;;;;;;3.81;100.00;99697.06;4958107;28;20077;-62
2021/11/25 05:53:00;;;;;;;4.68;1.45;;;;;;;3.89;100.00;99697.97;4968598;28;20134;-61
2021/11/25 05:55:45;;;;;;;4.32;1.63;;;;;;;3.97;100.00;99705.03;4986308;28;20502;-61
2021/11/25 05:58:30;;;;;;;2.45;1.40;;;;;;;4.05;100.00;99705.03;4940607;28;20256;-58
2021/11/25 06:01:14;;;;;;;5.20;2.10;;;;;;;4.04;100.00;99703.31;4971949;28;20097;-62
2021/11/25 06:03:59;;;;;;;3.65;1.70;;;;;;;4.04;100.00;99700.69;4986477;28;20158;-60
2021/11/25 06:06:44;;;;;;;2.83;1.65;;;;;;;4.03;100.00;99696.28;4966875;28;20096;-66
2021/11/25 06:09:29;;;;;;;3.08;1.55;;;;;;;3.93;100.00;99700.63;4970939;28;20101;-62
2021/11/25 06:12:13;;;;;;;3.72;2.05;;;;;;;3.93;100.00;99702.38;4983834;28;20053;-61
2021/11/25 06:14:57;;;;;;;3.30;1.73;;;;;;;3.95;100.00;99701.50;4985826;28;20081;-57
2021/11/25 06:17:43;;;;;;;5.97;1.90;;;;;;;3.91;100.00;99704.97;4970393;28;20104;-64
2021/11/25 06:20:27;;;;;;;3.60;2.15;;;;;;;3.97;100.00;99702.41;4983470;28;20089;-57
2021/11/25 06:23:13;;;;;;;7.38;3.25;;;;;;;3.90;100.00;99700.59;4970338;28;20117;-59
2021/11/25 06:25:58;;;;;;;8.63;3.00;;;;;;;3.77;100.00;99703.16;4983772;28;20065;-63
2021/11/25 06:28:43;;;;;;;9.00;3.67;;;;;;;3.91;100.00;99701.47;4985696;28;20157;-61
2021/11/25 06:31:27;;;;;;;6.63;2.85;;;;;;;3.91;100.00;99702.34;4983921;28;20194;-61
2021/11/25 06:34:12;;;;;;;5.20;2.25;;;;;;;4.12;100.00;99705.06;4985112;28;20097;-57
2021/11/25 06:36:56;;;;;;;3.78;1.70;;;;;;;4.14;100.00;99700.72;4980772;28;20105;-61
2021/11/25 06:39:40;;;;;;;2.67;2.00;;;;;;;4.06;100.00;99715.56;4983208;28;20058;-64
2021/11/25 06:42:25;;;;;;;6.72;3.05;;;;;;;4.01;100.00;99708.53;4985779;28;20053;-58
2021/11/25 06:45:11;;;;;;;4.47;2.92;;;;;;;4.22;100.00;99698.13;4984700;28;20137;-63
2021/11/25 06:47:56;;;;;;;7.35;3.20;;;;;;;4.46;100.00;99714.84;4981366;28;20077;-63
2021/11/25 06:50:40;;;;;;;10.57;3.95;;;;;;;4.43;100.00;99717.44;4986740;28;20137;-61
2021/11/25 06:53:28;;;;;;;7.53;3.78;;;;;;;4.47;100.00;99719.22;4973502;28;20384;-63
2021/11/25 06:56:14;;;;;;;6.03;3.08;;;;;;;4.56;100.00;99718.38;4988519;28;20136;-60
2021/11/25 06:58:58;;;;;;;7.57;3.47;;;;;;;4.62;100.00;99724.50;4987212;28;20142;-60
2021/11/25 07:01:44;;;;;;;7.15;2.90;;;;;;;4.53;100.00;99724.50;4969318;28;20125;-62
2021/11/25 07:04:28;;;;;;;10.00;3.40;;;;;;;4.24;100.00;99720.88;4978736;28;20101;-66
2021/11/25 07:07:13;;;;;;;6.13;3.58;;;;;;;4.53;100.00;99727.13;4978149;28;20061;-60
2021/11/25 07:09:57;;;;;;;5.47;3.30;;;;;;;4.71;100.00;99721.91;4983218;28;20049;-63
2021/11/25 07:12:43;;;;;;;6.68;3.15;;;;;;;4.95;100.00;99731.59;4983744;28;20077;-63
2021/11/25 07:15:28;;;;;;;7.50;3.22;;;;;;;4.95;100.00;99728.97;4968895;28;20147;-62
2021/11/25 07:18:13;;;;;;;6.78;3.50;;;;;;;4.85;100.00;99725.44;4982195;28;20108;-58
2021/11/25 07:20:59;;;;;;;6.88;3.72;;;;;;;4.85;100.00;99727.19;4962842;28;20133;-59
2021/11/25 07:23:44;;;;;;;8.38;4.57;;;;;;;4.88;100.00;99743.81;4977666;28;20056;-62
2021/11/25 07:26:28;;;;;;;8.50;4.07;;;;;;;5.03;100.00;99742.09;4982552;28;20093;-60
2021/11/25 07:29:14;;;;;;;11.10;4.97;;;;;;;4.93;100.00;99746.47;4968253;28;20100;-62
2021/11/25 07:31:59;;;;;;;8.48;4.80;;;;;;;4.84;100.00;99749.94;4982311;28;20311;-61
2021/11/25 07:34:43;;;;;;;8.23;4.32;;;;;;;5.02;100.00;99746.47;4965058;28;20057;-56
2021/11/25 07:37:28;;;;;;;7.47;4.38;;;;;;;5.06;100.00;99750.88;4981328;28;20112;-60
2021/11/25 07:40:12;;;;;;;7.18;4.22;;;;;;;5.01;100.00;99752.63;4984216;28;20398;-59
2021/11/25 07:42:57;;;;;;;12.07;5.45;;;;;;;4.92;100.00;99752.59;4969561;28;20098;-62
2021/11/25 07:45:42;;;;;;;10.90;5.43;;;;;;;5.14;100.00;99758.78;4979802;28;20431;-64
2021/11/25 07:48:26;;;;;;;13.27;5.32;;;;;;;5.01;100.00;99760.50;4976848;28;20483;-65
2021/11/25 07:51:11;;;;;;;8.13;5.20;;;;;;;4.85;100.00;99774.47;4969509;28;20065;-61
2021/11/25 07:53:57;;;;;;;7.32;5.03;;;;;;;4.65;100.00;99769.16;4964896;28;20120;-60
2021/11/25 07:56:42;;;;;;;10.02;5.53;;;;;;;4.49;100.00;99772.63;4967335;28;20100;-64
2021/11/25 07:59:30;;;;;;;10.63;5.07;;;;;;;4.52;100.00;99769.13;4980414;28;20465;-63
2021/11/25 08:02:19;;;;;;;11.38;5.53;;;;;;;4.35;100.00;99770.78;4959346;28;20082;-65
2021/11/25 08:05:06;;;;;;;7.63;5.35;;;;;;;4.37;100.00;99764.69;4964740;28;20054;-66
2021/11/25 08:07:54;;;;;;;12.32;6.50;;;;;;;4.42;100.00;99769.94;4952533;28;20066;-63
2021/11/25 08:10:39;;;;;;;14.52;5.68;;;;;;;4.39;100.00;99769.91;4981479;28;20080;-63
2021/11/25 08:13:25;;;;;;;13.00;6.00;;;;;;;4.61;100.00;99761.25;4952325;28;20049;-62
2021/11/25 08:16:14;;;;;;;10.85;5.53;;;;;;;4.90;100.00;99772.72;4950216;28;20049;-64
2021/11/25 08:18:59;;;;;;;9.80;5.45;;;;;;;5.09;100.00;99779.78;4975888;28;20076;-62
2021/11/25 08:21:44;;;;;;;16.55;6.47;;;;;;;5.14;100.00;99772.78;4967935;28;20065;-63
2021/11/25 08:24:29;;;;;;;16.75;7.07;;;;;;;4.92;100.00;99765.75;4965659;28;20185;-63
2021/11/25 08:27:14;;;;;;;14.82;6.93;;;;;;;4.97;100.00;99770.13;4978491;28;20460;-64
2021/11/25 08:29:59;;;;;;;14.48;7.70;;;;;;;5.01;100.00;99768.38;4976928;28;20081;-66
2021/11/25 08:32:44;;;;;;;14.70;8.15;;;;;;;5.18;100.00;99768.41;4981918;28;20073;-59
2021/11/25 08:35:30;;;;;;;15.73;7.15;;;;;;;5.12;100.00;99769.28;4966118;28;20044;-59
2021/11/25 08:38:15;;;;;;;14.73;7.03;;;;;;;5.12;100.00;99771.03;4981316;28;20045;-64
2021/11/25 08:41:01;;;;;;;11.82;6.00;;;;;;;5.29;100.00;99770.16;4980919;28;20124;-60
2021/11/25 08:43:46;;;;;;;12.10;6.07;;;;;;;5.21;100.00;99771.06;4965370;28;20414;-63
2021/11/25 08:46:31;;;;;;;10.73;5.85;;;;;;;5.10;100.00;99765.75;4963155;28;20600;-63
2021/11/25 08:49:15;;;;;;;10.30;5.13;;;;;;;5.03;100.00;99763.13;4978326;28;20141;-67
2021/11/25 08:51:59;;;;;;;10.95;5.95;;;;;;;5.15;100.00;99768.41;4979985;28;20518;-59
2021/11/25 08:54:44;;;;;;;9.18;5.43;;;;;;;4.70;100.00;99767.44;4976051;28;20050;-64
2021/11/25 08:57:29;;;;;;;10.90;6.63;;;;;;;4.70;100.00;99770.06;4979843;28;20566;-63
2021/11/25 09:00:16;;;;;;;13.20;6.45;;;;;;;4.73;100.00;99774.44;4951172;28;20100;-63
2021/11/25 09:03:02;;;;;;;13.70;6.32;;;;;;;5.05;100.00;99767.50;4976830;28;20056;-65
2021/11/25 09:05:47;;;;;;;8.25;5.40;;;;;;;5.33;100.00;99763.19;4986405;28;20426;-63
2021/11/25 09:08:31;;;;;;;8.82;5.10;;;;;;;5.37;100.00;99757.06;4982874;28;20069;-65
2021/11/25 09:11:16;;;;;;;9.60;4.88;;;;;;;5.18;100.00;99768.41;4986736;28;20065;-63
2021/11/25 09:14:01;;;;;;;10.48;4.75;;;;;;;5.19;100.00;99767.53;4970259;28;20577;-64
2021/11/25 09:16:47;;;;;;;6.32;3.97;;;;;;;5.38;100.00;99769.31;4982388;28;20089;-62
2021/11/25 09:19:31;;;;;;;7.75;4.28;;;;;;;5.40;100.00;99771.06;4974435;28;20828;-64
2021/11/25 09:22:16;;;;;;;12.45;4.32;;;;;;;5.51;100.00;99760.53;4984330;28;20077;-66
2021/11/25 09:25:00;;;;;;;9.40;4.53;;;;;;;5.69;100.00;99764.03;4976292;28;20120;-64
2021/11/25 09:27:46;;;;;;;7.15;3.92;;;;;;;5.54;100.00;99761.41;4976620;28;20045;-67
2021/11/25 09:30:31;;;;;;;8.05;4.13;;;;;;;5.38;100.00;99770.16;4955935;28;20061;-66
2021/11/25 09:33:17;;;;;;;7.55;4.10;;;;;;;5.38;100.00;99772.78;4978257;28;20061;-65
2021/11/25 09:36:03;;;;;;;7.70;3.88;;;;;;;5.25;100.00;99765.78;4971256;28;20050;-64
2021/11/25 09:38:50;;;;;;;6.22;3.53;;;;;;;5.23;100.00;99762.28;4984783;28;20061;-63
2021/11/25 09:41:36;;;;;;;6.90;3.65;;;;;;;5.43;100.00;99757.03;4979463;28;20058;-68
2021/11/25 09:44:22;;;;;;;7.47;4.15;;;;;;;5.60;100.00;99765.78;4964864;28;20110;-65
2021/11/25 09:47:06;;;;;;;9.85;4.00;;;;;;;5.52;100.00;99763.16;4968199;28;20096;-66
2021/11/25 09:49:52;;;;;;;5.18;3.13;;;;;;;5.44;100.00;99761.41;4970685;28;20092;-64
2021/11/25 09:52:37;;;;;;;6.80;4.30;;;;;;;5.14;100.00;99749.13;4984993;28;20108;-63
2021/11/25 09:55:22;;;;;;;6.60;3.97;;;;;;;5.34;100.00;99770.19;4966867;28;20136;-59
2021/11/25 09:58:11;;;;;;;8.57;4.00;;;;;;;5.43;100.00;99768.44;4980236;28;20103;-63
2021/11/25 10:01:10;;;;;;;11.65;3.58;;;;;;;5.44;100.00;99771.94;4968710;28;20077;-67
2021/11/25 10:03:55;;;;;;;7.13;3.30;;;;;;;5.41;100.00;99767.53;4957987;28;20072;-63
2021/11/25 10:06:55;;;;;;;7.55;3.65;;;;;;;5.71;100.00;99774.56;4953842;28;20103;-62
2021/11/25 10:09:42;;;;;;;5.57;3.45;;;;;;;5.87;100.00;99771.06;4978449;28;20914;-62
2021/11/25 10:12:37;;;;;;;6.78;3.08;;;;;;;5.80;100.00;99766.66;4969969;28;20111;-64
2021/11/25 10:15:29;;;;;;;7.60;3.53;;;;;;;5.33;100.00;99764.03;4978210;28;20062;-64
2021/11/25 10:18:17;;;;;;;6.53;3.70;;;;;;;5.32;100.00;99761.41;4966638;28;20893;-65
2021/11/25 10:21:07;;;;;;;5.85;3.03;;;;;;;5.29;100.00;99754.41;4965575;28;20140;-65
2021/11/25 10:23:54;;;;;;;6.20;3.22;;;;;;;5.44;100.00;99753.53;4986361;28;20423;-64
2021/11/25 10:26:39;;;;;;;6.07;3.25;;;;;;;5.26;100.00;99750.91;4972395;28;20092;-62
2021/11/25 10:29:23;;;;;;;6.78;3.92;;;;;;;5.37;100.00;99760.53;4974505;28;20080;-64
2021/11/25 10:32:17;;;;;;;6.13;3.75;;;;;;;5.42;100.00;99756.16;4973055;28;20105;-66
2021/11/25 10:35:28;;;;;;;6.10;3.75;;;;;;;5.34;100.00;99757.03;4981602;28;20469;-69
2021/11/25 10:41:17;;;;;;;9.10;4.10;;;;;;;5.70;100.00;99741.25;4962502;28;20105;-64
2021/11/25 10:44:17;;;;;;;5.07;2.80;;;;;;;5.67;100.00;99742.13;4976849;28;20081;-62
2021/11/25 10:47:14;;;;;;;4.80;2.53;;;;;;;5.54;100.00;99739.50;4980105;28;20150;-62
2021/11/25 10:50:01;;;;;;;4.07;2.67;;;;;;;5.57;100.00;99740.38;4978044;28;20065;-66
2021/11/25 10:52:49;;;;;;;4.38;2.90;;;;;;;5.65;100.00;99732.50;4970311;28;20070;-65
2021/11/25 10:55:35;;;;;;;7.80;3.40;;;;;;;5.91;100.00;99741.25;4980463;28;20137;-63
2021/11/25 10:58:21;;;;;;;6.47;3.40;;;;;;;5.75;100.00;99748.25;4970461;28;20053;-64
2021/11/25 11:01:06;;;;;;;5.15;3.08;;;;;;;5.47;100.00;99741.28;4980789;28;20081;-67
2021/11/25 11:03:59;;;;;;;5.20;3.60;;;;;;;5.68;100.00;99735.97;4968217;28;20093;-64
2021/11/25 11:06:45;;;;;;;5.20;3.10;;;;;;;5.54;100.00;99742.13;4970752;28;20145;-65
2021/11/25 11:09:39;;;;;;;4.80;2.65;;;;;;;5.66;100.00;99731.59;4983142;28;20057;-64
2021/11/25 11:20:52;;;;;;;6.00;3.53;;;;;;;5.52;100.00;99734.25;4956631;28;20061;-64
2021/11/25 11:23:38;;;;;;;5.57;3.35;;;;;;;5.46;100.00;99743.91;4980481;28;20177;-65
2021/11/25 11:26:23;;;;;;;7.47;3.28;;;;;;;5.39;100.00;99735.13;4968169;28;20060;-70
2021/11/25 11:29:10;;;;;;;6.97;3.63;;;;;;;5.23;100.00;99733.38;4966053;28;20152;-66
2021/11/25 11:31:58;;;;;;;6.53;3.92;;;;;;;5.32;100.00;99737.75;4978308;28;20427;-65
2021/11/25 11:34:44;;;;;;;6.97;3.83;;;;;;;5.27;100.00;99723.72;4951600;28;20082;-63
2021/11/25 11:37:31;;;;;;;6.78;3.53;;;;;;;5.14;100.00;99727.25;4979058;28;20053;-66
2021/11/25 11:40:16;;;;;;;6.38;3.85;;;;;;;5.08;100.00;99733.34;4982008;28;20173;-69
2021/11/25 11:43:01;;;;;;;;;;;;;;;5.04;100.00;99731.59;4980320;28;20057;-69
2021/11/25 11:55:38;;;;;;;8.05;3.80;;;;;;;4.80;100.00;99724.53;2691732;23;20104;-63
2021/11/25 11:58:26;;;;;;;10.30;3.92;;;;;;;4.74;100.00;99734.16;4989958;28;20395;-64
2021/11/25 12:01:15;;;;;;;8.25;4.05;;;;;;;4.74;100.00;99732.41;4999135;28;20497;-65
2021/11/25 12:04:14;;;;;;;7.88;3.90;;;;;;;4.77;100.00;99726.28;4984884;28;20210;-66
2021/11/25 12:06:59;;;;;;;7.82;3.75;;;;;;;4.65;100.00;99742.91;4987374;28;20529;-69
2021/11/25 12:09:53;;;;;;;10.00;3.90;;;;;;;4.59;100.00;99736.78;4986115;28;20065;-69
2021/11/25 12:13:03;;;;;;;7.70;4.10;;;;;;;4.67;100.00;99735.91;4969964;28;20053;-66
2021/11/25 12:15:48;;;;;;;9.35;3.72;;;;;;;4.86;100.00;99732.44;4983467;28;20060;-66
2021/11/25 12:18:36;;;;;;;7.80;3.92;;;;;;;4.71;100.00;99732.41;4987275;28;20145;-65
2021/11/25 12:21:48;;;;;;;6.22;3.30;;;;;;;4.71;100.00;99732.41;4985152;28;20101;-65
2021/11/25 12:24:55;;;;;;;5.97;3.15;;;;;;;4.62;100.00;99739.38;4982084;28;20544;-66
2021/11/25 12:27:41;;;;;;;5.72;2.70;;;;;;;4.58;100.00;99735.88;4982162;28;20243;-66
2021/11/25 12:30:40;;;;;;;4.97;2.50;;;;;;;4.75;100.00;99728.91;4998882;28;20045;-67
2021/11/25 12:33:42;;;;;;;6.00;2.55;;;;;;;4.83;100.00;99726.31;4989994;28;20070;-65
2021/11/25 12:36:37;;;;;;;7.38;3.10;;;;;;;4.88;100.00;99735.94;4987241;28;20097;-65
2021/11/25 12:39:36;;;;;;;;;;;;;;;4.71;100.00;99732.41;4983693;28;20120;-65
2021/11/25 12:42:21;;;;;;;7.15;3.17;;;;;;;4.54;100.00;99734.13;4981390;28;20467;-69
2021/11/25 12:45:28;;;;;;;6.97;3.53;;;;;;;4.60;100.00;99715.75;4984627;28;20174;-65
2021/11/25 12:48:17;;;;;;;7.20;2.90;;;;;;;4.63;100.00;99747.25;4985407;28;20470;-65
2021/11/25 12:51:07;;;;;;;3.90;2.55;;;;;;;4.76;100.00;99735.06;4969708;28;20084;-67
2021/11/25 12:53:53;;;;;;;5.95;2.80;;;;;;;4.71;100.00;99727.16;4973299;28;20077;-65
2021/11/25 12:56:40;;;;;;;5.50;2.88;;;;;;;4.47;100.00;99720.94;4971454;28;20065;-65
2021/11/25 12:59:25;;;;;;;8.00;3.40;;;;;;;4.59;100.00;99737.63;4986157;28;20185;-70
2021/11/25 13:02:09;;;;;;;4.10;2.65;;;;;;;4.55;100.00;99735.84;4986097;28;20056;-64
2021/11/25 13:04:54;;;;;;;5.85;3.08;;;;;;;4.53;100.00;99740.25;4985118;28;20124;-62
2021/11/25 13:07:48;;;;;;;6.35;2.85;;;;;;;4.57;100.00;99749.88;4986987;28;20529;-66
2021/11/25 13:10:37;;;;;;;6.13;2.70;;;;;;;4.50;100.00;99741.97;4982862;28;20092;-62
2021/11/25 13:13:24;;;;;;;4.72;2.40;;;;;;;4.69;100.00;99747.28;4984002;28;20073;-72
2021/11/25 13:16:11;;;;;;;4.38;2.40;;;;;;;4.68;100.00;99723.66;4979317;28;20077;-60
2021/11/25 13:19:00;;;;;;;5.28;2.60;;;;;;;4.57;100.00;99747.25;5004750;28;20052;-60
2021/11/25 13:21:49;;;;;;;4.53;2.47;;;;;;;4.65;100.00;99742.03;4984494;28;20073;-58
2021/11/25 13:24:43;;;;;;;5.68;2.28;;;;;;;4.63;100.00;99738.53;4986627;28;20045;-63
2021/11/25 13:27:27;;;;;;;5.05;2.40;;;;;;;4.39;100.00;99723.56;4983396;28;20081;-58
2021/11/25 13:30:12;;;;;;;3.00;2.00;;;;;;;4.41;100.00;99718.31;4985121;28;20142;-64